Aérodrome :
LOGIN :

S'inscrire | Disclaimer

   EN    FR    IT 

 










Légende :    VFR   VFR Marginal   IFR   IFR Intensif   IFR Très Intensif
Visi : 
Plafond : 
>= 8 km
>= 3000ft
5 à 8 km
1000 à 3000 ft
1500m à 5 km
500 à 1000 ft
800 à 1500m
200 à 500 ft
< 800m
< 200 ft
Symboles :   Orages  Brouillard  Fortes neiges  Fortes précipitations  Vent > 20 kt
SIGMETs :   Divers  Orages  Givrage  Turbulence  Onde Orograph.  Cendres Volcan.







- Altitude de l'aérodrome : 479 ft
- Code IATA : DOL
- Voir les cartes d'approche


LFRG - Deauville

DERNIER METAR :
  • 221030Z AUTO 24005KT 180V350 CAVOK 18/05 Q1021 NOSIG

METARs EXPIRÉS :
  • 221000Z AUTO 24005KT 130V290 CAVOK 17/07 Q1021 NOSIG
  • 220930Z AUTO 26005KT 200V290 CAVOK 16/07 Q1021 NOSIG
  • 220900Z AUTO 24005KT 200V270 CAVOK 15/08 Q1021 NOSIG
  • 220830Z AUTO 22004KT 180V250 CAVOK 15/07 Q1021 NOSIG
  • 220800Z AUTO 22003KT 140V260 CAVOK 14/08 Q1021 NOSIG

TAF TAF LFRG
Valide du 22 à 09h jusqu'au 22 à 18h UTC


220800Z 2209/2218 VRB03KT CAVOK
BECMG 2210/2213 32006KT
ATIS : +33 2 31 65 65 36
Pas de NOTAMs connus pour ce terrain.



MET'MAP, la Météo Aéronautique d'un coup d'oeil ! - Copyright ORBIFLY Décembre 2007 - Disclaimer

ORBIFLY MET'MAP TEAM :

Programmation & Développement : Alexandra Zaïnal
Conception & Développement : Baudouin d'Aumeries
Co-Programmation & Développement : Marc-Olivier Méhu
Soutien technique & logistique : Manuel Goepfert

Contact : metmap@orbifly.com




SOURCES & CREDITS :

   NOAA